sensor_id;sensor_type;location;lat;lon;timestamp;P1;durP1;ratioP1;P2;durP2;ratioP2
29504;SDS011;16452;54.174;12.092;2023-03-01T00:01:11;10.35;;;4.93;;
29504;SDS011;16452;54.174;12.092;2023-03-01T00:03:41;9.38;;;5.25;;
29504;SDS011;16452;54.174;12.092;2023-03-01T00:06:07;7.70;;;4.90;;
29504;SDS011;16452;54.174;12.092;2023-03-01T00:08:34;7.15;;;4.40;;
29504;SDS011;16452;54.174;12.092;2023-03-01T00:11:04;9.75;;;4.68;;
29504;SDS011;16452;54.174;12.092;2023-03-01T00:13:44;8.00;;;4.70;;
29504;SDS011;16452;54.174;12.092;2023-03-01T00:16:13;9.60;;;5.05;;
29504;SDS011;16452;54.174;12.092;2023-03-01T00:18:51;5.70;;;4.50;;
29504;SDS011;16452;54.174;12.092;2023-03-01T00:21:19;6.72;;;4.60;;
29504;SDS011;16452;54.174;12.092;2023-03-01T00:23:47;8.13;;;4.72;;
29504;SDS011;16452;54.174;12.092;2023-03-01T00:26:13;7.47;;;4.60;;
29504;SDS011;16452;54.174;12.092;2023-03-01T00:28:40;8.02;;;4.63;;
29504;SDS011;16452;54.174;12.092;2023-03-01T00:31:07;8.50;;;4.95;;
29504;SDS011;16452;54.174;12.092;2023-03-01T00:33:42;8.30;;;4.80;;
29504;SDS011;16452;54.174;12.092;2023-03-01T00:36:09;6.78;;;4.75;;
29504;SDS011;16452;54.174;12.092;2023-03-01T00:38:38;8.10;;;5.25;;
29504;SDS011;16452;54.174;12.092;2023-03-01T00:41:08;9.07;;;5.07;;
29504;SDS011;16452;54.174;12.092;2023-03-01T00:43:36;8.05;;;5.18;;
29504;SDS011;16452;54.174;12.092;2023-03-01T00:46:07;9.85;;;5.25;;
29504;SDS011;16452;54.174;12.092;2023-03-01T00:48:44;6.65;;;4.93;;
29504;SDS011;16452;54.174;12.092;2023-03-01T00:51:18;8.60;;;5.03;;
29504;SDS011;16452;54.174;12.092;2023-03-01T00:53:51;8.40;;;4.80;;
29504;SDS011;16452;54.174;12.092;2023-03-01T00:56:19;13.10;;;5.53;;
29504;SDS011;16452;54.174;12.092;2023-03-01T00:58:45;8.63;;;5.53;;
29504;SDS011;16452;54.174;12.092;2023-03-01T01:01:16;10.15;;;5.60;;
29504;SDS011;16452;54.174;12.092;2023-03-01T01:03:52;6.93;;;5.05;;
29504;SDS011;16452;54.174;12.092;2023-03-01T01:06:23;7.15;;;5.00;;
29504;SDS011;16452;54.174;12.092;2023-03-01T01:08:54;8.45;;;5.50;;
29504;SDS011;16452;54.174;12.092;2023-03-01T01:11:22;9.05;;;5.43;;
29504;SDS011;16452;54.174;12.092;2023-03-01T01:13:50;9.43;;;5.10;;
29504;SDS011;16452;54.174;12.092;2023-03-01T01:16:17;7.43;;;5.57;;
29504;SDS011;16452;54.174;12.092;2023-03-01T01:18:44;7.65;;;5.10;;
29504;SDS011;16452;54.174;12.092;2023-03-01T01:21:11;8.57;;;4.60;;
29504;SDS011;16452;54.174;12.092;2023-03-01T01:23:40;7.93;;;4.68;;
29504;SDS011;16452;54.174;12.092;2023-03-01T01:26:13;6.50;;;4.70;;
29504;SDS011;16452;54.174;12.092;2023-03-01T01:28:45;6.15;;;4.30;;
29504;SDS011;16452;54.174;12.092;2023-03-01T01:31:12;7.38;;;4.65;;
29504;SDS011;16452;54.174;12.092;2023-03-01T01:33:38;7.43;;;4.30;;
29504;SDS011;16452;54.174;12.092;2023-03-01T01:36:04;7.70;;;4.20;;
29504;SDS011;16452;54.174;12.092;2023-03-01T01:38:32;6.47;;;4.30;;
29504;SDS011;16452;54.174;12.092;2023-03-01T01:40:59;4.72;;;4.03;;
29504;SDS011;16452;54.174;12.092;2023-03-01T01:43:28;7.88;;;3.90;;
29504;SDS011;16452;54.174;12.092;2023-03-01T01:46:01;4.82;;;3.72;;
29504;SDS011;16452;54.174;12.092;2023-03-01T01:49:04;4.90;;;3.90;;
29504;SDS011;16452;54.174;12.092;2023-03-01T01:51:42;5.45;;;3.90;;
29504;SDS011;16452;54.174;12.092;2023-03-01T01:54:33;5.60;;;4.15;;
29504;SDS011;16452;54.174;12.092;2023-03-01T01:57:43;7.60;;;4.55;;
29504;SDS011;16452;54.174;12.092;2023-03-01T02:00:14;6.60;;;4.28;;
29504;SDS011;16452;54.174;12.092;2023-03-01T02:02:51;7.35;;;4.18;;
29504;SDS011;16452;54.174;12.092;2023-03-01T02:08:25;9.85;;;4.30;;
29504;SDS011;16452;54.174;12.092;2023-03-01T02:10:55;5.53;;;4.10;;
29504;SDS011;16452;54.174;12.092;2023-03-01T02:13:22;6.90;;;4.43;;
29504;SDS011;16452;54.174;12.092;2023-03-01T02:15:48;6.15;;;4.10;;
29504;SDS011;16452;54.174;12.092;2023-03-01T02:18:16;6.70;;;4.18;;
29504;SDS011;16452;54.174;12.092;2023-03-01T02:23:32;5.38;;;4.00;;
29504;SDS011;16452;54.174;12.092;2023-03-01T02:26:06;5.00;;;3.80;;
29504;SDS011;16452;54.174;12.092;2023-03-01T02:28:43;5.78;;;3.88;;
29504;SDS011;16452;54.174;12.092;2023-03-01T02:31:10;6.60;;;4.20;;
29504;SDS011;16452;54.174;12.092;2023-03-01T02:33:59;5.78;;;4.20;;
29504;SDS011;16452;54.174;12.092;2023-03-01T02:36:30;5.32;;;4.38;;
29504;SDS011;16452;54.174;12.092;2023-03-01T02:39:04;5.68;;;4.25;;
29504;SDS011;16452;54.174;12.092;2023-03-01T02:41:39;5.82;;;4.13;;
29504;SDS011;16452;54.174;12.092;2023-03-01T02:44:10;6.25;;;4.50;;
29504;SDS011;16452;54.174;12.092;2023-03-01T02:46:42;6.07;;;4.60;;
29504;SDS011;16452;54.174;12.092;2023-03-01T02:49:17;6.80;;;4.32;;
29504;SDS011;16452;54.174;12.092;2023-03-01T02:55:09;8.05;;;5.10;;
29504;SDS011;16452;54.174;12.092;2023-03-01T02:57:40;6.55;;;4.75;;
29504;SDS011;16452;54.174;12.092;2023-03-01T03:00:09;5.70;;;4.15;;
29504;SDS011;16452;54.174;12.092;2023-03-01T03:02:47;6.22;;;4.13;;
29504;SDS011;16452;54.174;12.092;2023-03-01T03:05:49;6.03;;;4.70;;
29504;SDS011;16452;54.174;12.092;2023-03-01T03:08:07;7.38;;;4.55;;
29504;SDS011;16452;54.174;12.092;2023-03-01T03:10:35;7.70;;;5.15;;
29504;SDS011;16452;54.174;12.092;2023-03-01T03:13:13;8.27;;;4.85;;
29504;SDS011;16452;54.174;12.092;2023-03-01T03:15:40;5.85;;;4.53;;
29504;SDS011;16452;54.174;12.092;2023-03-01T03:18:08;6.28;;;4.70;;
29504;SDS011;16452;54.174;12.092;2023-03-01T03:20:39;6.53;;;4.68;;
29504;SDS011;16452;54.174;12.092;2023-03-01T03:23:07;7.40;;;4.80;;
29504;SDS011;16452;54.174;12.092;2023-03-01T03:25:33;6.97;;;4.78;;
29504;SDS011;16452;54.174;12.092;2023-03-01T03:28:02;7.75;;;4.90;;
29504;SDS011;16452;54.174;12.092;2023-03-01T03:30:35;7.65;;;4.93;;
29504;SDS011;16452;54.174;12.092;2023-03-01T03:33:06;7.38;;;4.93;;
29504;SDS011;16452;54.174;12.092;2023-03-01T03:35:37;8.57;;;4.82;;
29504;SDS011;16452;54.174;12.092;2023-03-01T03:38:08;9.38;;;5.13;;
29504;SDS011;16452;54.174;12.092;2023-03-01T03:40:47;7.55;;;5.25;;
29504;SDS011;16452;54.174;12.092;2023-03-01T03:43:17;11.02;;;5.50;;
29504;SDS011;16452;54.174;12.092;2023-03-01T03:45:48;8.30;;;5.63;;
29504;SDS011;16452;54.174;12.092;2023-03-01T03:48:16;12.43;;;6.22;;
29504;SDS011;16452;54.174;12.092;2023-03-01T03:50:46;8.15;;;5.50;;
29504;SDS011;16452;54.174;12.092;2023-03-01T03:53:21;9.05;;;5.82;;
29504;SDS011;16452;54.174;12.092;2023-03-01T03:55:50;9.50;;;5.55;;
29504;SDS011;16452;54.174;12.092;2023-03-01T03:58:17;9.52;;;5.80;;
29504;SDS011;16452;54.174;12.092;2023-03-01T04:00:46;7.22;;;5.40;;
29504;SDS011;16452;54.174;12.092;2023-03-01T04:03:16;9.10;;;5.40;;
29504;SDS011;16452;54.174;12.092;2023-03-01T04:05:47;9.70;;;5.78;;
29504;SDS011;16452;54.174;12.092;2023-03-01T04:08:15;9.15;;;6.45;;
29504;SDS011;16452;54.174;12.092;2023-03-01T04:10:45;9.48;;;6.20;;
29504;SDS011;16452;54.174;12.092;2023-03-01T04:13:14;9.65;;;6.45;;
29504;SDS011;16452;54.174;12.092;2023-03-01T04:15:44;8.77;;;6.95;;
29504;SDS011;16452;54.174;12.092;2023-03-01T04:18:16;9.90;;;6.63;;
29504;SDS011;16452;54.174;12.092;2023-03-01T04:20:43;10.93;;;7.00;;
29504;SDS011;16452;54.174;12.092;2023-03-01T04:23:11;9.68;;;6.57;;
29504;SDS011;16452;54.174;12.092;2023-03-01T04:25:41;9.50;;;6.43;;
29504;SDS011;16452;54.174;12.092;2023-03-01T04:28:27;11.45;;;6.60;;
29504;SDS011;16452;54.174;12.092;2023-03-01T04:31:05;11.93;;;6.70;;
29504;SDS011;16452;54.174;12.092;2023-03-01T04:33:44;12.02;;;7.07;;
29504;SDS011;16452;54.174;12.092;2023-03-01T04:36:23;10.02;;;6.22;;
29504;SDS011;16452;54.174;12.092;2023-03-01T04:38:54;11.63;;;7.10;;
29504;SDS011;16452;54.174;12.092;2023-03-01T04:41:22;12.40;;;7.07;;
29504;SDS011;16452;54.174;12.092;2023-03-01T04:43:49;12.18;;;6.97;;
29504;SDS011;16452;54.174;12.092;2023-03-01T04:46:16;12.63;;;7.50;;
29504;SDS011;16452;54.174;12.092;2023-03-01T04:48:44;11.13;;;7.13;;
29504;SDS011;16452;54.174;12.092;2023-03-01T04:51:12;13.07;;;8.27;;
29504;SDS011;16452;54.174;12.092;2023-03-01T04:53:38;11.68;;;8.00;;
29504;SDS011;16452;54.174;12.092;2023-03-01T04:56:05;11.75;;;7.53;;
29504;SDS011;16452;54.174;12.092;2023-03-01T04:58:31;12.82;;;7.85;;
29504;SDS011;16452;54.174;12.092;2023-03-01T05:00:57;12.85;;;7.97;;
29504;SDS011;16452;54.174;12.092;2023-03-01T05:03:23;15.68;;;8.10;;
29504;SDS011;16452;54.174;12.092;2023-03-01T05:05:50;12.50;;;8.02;;
29504;SDS011;16452;54.174;12.092;2023-03-01T05:08:17;13.02;;;8.45;;
29504;SDS011;16452;54.174;12.092;2023-03-01T05:10:45;10.38;;;7.38;;
29504;SDS011;16452;54.174;12.092;2023-03-01T05:13:18;14.88;;;8.40;;
29504;SDS011;16452;54.174;12.092;2023-03-01T05:15:55;13.43;;;7.55;;
29504;SDS011;16452;54.174;12.092;2023-03-01T05:18:26;12.80;;;7.80;;
29504;SDS011;16452;54.174;12.092;2023-03-01T05:20:55;12.50;;;8.50;;
29504;SDS011;16452;54.174;12.092;2023-03-01T05:23:41;12.48;;;8.07;;
29504;SDS011;16452;54.174;12.092;2023-03-01T05:26:07;13.95;;;8.32;;
29504;SDS011;16452;54.174;12.092;2023-03-01T05:28:33;13.57;;;8.30;;
29504;SDS011;16452;54.174;12.092;2023-03-01T05:30:59;12.60;;;8.73;;
29504;SDS011;16452;54.174;12.092;2023-03-01T05:33:26;15.30;;;8.85;;
29504;SDS011;16452;54.174;12.092;2023-03-01T05:35:52;15.45;;;9.32;;
29504;SDS011;16452;54.174;12.092;2023-03-01T05:38:18;15.70;;;9.52;;
29504;SDS011;16452;54.174;12.092;2023-03-01T05:40:46;18.67;;;9.45;;
29504;SDS011;16452;54.174;12.092;2023-03-01T05:43:13;14.65;;;8.82;;
29504;SDS011;16452;54.174;12.092;2023-03-01T05:45:41;15.95;;;9.63;;
29504;SDS011;16452;54.174;12.092;2023-03-01T05:48:08;15.65;;;9.50;;
29504;SDS011;16452;54.174;12.092;2023-03-01T05:50:36;18.75;;;9.70;;
29504;SDS011;16452;54.174;12.092;2023-03-01T05:53:12;15.50;;;9.85;;
29504;SDS011;16452;54.174;12.092;2023-03-01T05:55:47;15.05;;;9.80;;
29504;SDS011;16452;54.174;12.092;2023-03-01T05:58:15;16.10;;;10.15;;
29504;SDS011;16452;54.174;12.092;2023-03-01T06:00:44;16.83;;;10.07;;
29504;SDS011;16452;54.174;12.092;2023-03-01T06:03:13;17.42;;;10.10;;
29504;SDS011;16452;54.174;12.092;2023-03-01T06:05:41;18.17;;;11.98;;
29504;SDS011;16452;54.174;12.092;2023-03-01T06:08:08;18.35;;;11.55;;
29504;SDS011;16452;54.174;12.092;2023-03-01T06:10:36;15.15;;;10.43;;
29504;SDS011;16452;54.174;12.092;2023-03-01T06:13:02;18.95;;;10.95;;
29504;SDS011;16452;54.174;12.092;2023-03-01T06:15:28;20.35;;;11.90;;
29504;SDS011;16452;54.174;12.092;2023-03-01T06:17:54;18.08;;;11.02;;
29504;SDS011;16452;54.174;12.092;2023-03-01T06:20:24;17.95;;;11.77;;
29504;SDS011;16452;54.174;12.092;2023-03-01T06:22:52;19.75;;;12.55;;
29504;SDS011;16452;54.174;12.092;2023-03-01T06:25:19;21.23;;;12.98;;
29504;SDS011;16452;54.174;12.092;2023-03-01T06:27:48;19.13;;;12.73;;
29504;SDS011;16452;54.174;12.092;2023-03-01T06:30:15;23.92;;;13.55;;
29504;SDS011;16452;54.174;12.092;2023-03-01T06:32:43;21.70;;;14.23;;
29504;SDS011;16452;54.174;12.092;2023-03-01T06:35:09;23.67;;;15.10;;
29504;SDS011;16452;54.174;12.092;2023-03-01T06:37:37;31.13;;;16.63;;
29504;SDS011;16452;54.174;12.092;2023-03-01T06:40:04;22.25;;;15.35;;
29504;SDS011;16452;54.174;12.092;2023-03-01T06:42:33;24.67;;;15.88;;
29504;SDS011;16452;54.174;12.092;2023-03-01T06:45:00;26.35;;;16.15;;
29504;SDS011;16452;54.174;12.092;2023-03-01T06:47:26;26.27;;;17.00;;
29504;SDS011;16452;54.174;12.092;2023-03-01T06:49:52;25.48;;;16.60;;
29504;SDS011;16452;54.174;12.092;2023-03-01T06:52:18;29.45;;;17.65;;
29504;SDS011;16452;54.174;12.092;2023-03-01T06:54:46;29.23;;;17.90;;
29504;SDS011;16452;54.174;12.092;2023-03-01T06:57:13;30.27;;;18.33;;
29504;SDS011;16452;54.174;12.092;2023-03-01T06:59:38;29.50;;;17.75;;
29504;SDS011;16452;54.174;12.092;2023-03-01T07:02:04;28.13;;;17.55;;
29504;SDS011;16452;54.174;12.092;2023-03-01T07:04:30;27.15;;;17.27;;
29504;SDS011;16452;54.174;12.092;2023-03-01T07:06:55;31.23;;;18.92;;
29504;SDS011;16452;54.174;12.092;2023-03-01T07:09:22;30.45;;;19.10;;
29504;SDS011;16452;54.174;12.092;2023-03-01T07:11:49;33.72;;;19.38;;
29504;SDS011;16452;54.174;12.092;2023-03-01T07:14:15;26.75;;;18.00;;
29504;SDS011;16452;54.174;12.092;2023-03-01T07:16:41;28.50;;;19.05;;
29504;SDS011;16452;54.174;12.092;2023-03-01T07:19:07;30.85;;;19.10;;
29504;SDS011;16452;54.174;12.092;2023-03-01T07:21:32;29.30;;;19.15;;
29504;SDS011;16452;54.174;12.092;2023-03-01T07:23:58;33.53;;;20.23;;
29504;SDS011;16452;54.174;12.092;2023-03-01T07:26:24;34.72;;;20.80;;
29504;SDS011;16452;54.174;12.092;2023-03-01T07:28:50;35.65;;;21.98;;
29504;SDS011;16452;54.174;12.092;2023-03-01T07:31:15;34.45;;;21.10;;
29504;SDS011;16452;54.174;12.092;2023-03-01T07:33:41;34.28;;;21.85;;
29504;SDS011;16452;54.174;12.092;2023-03-01T07:36:07;39.22;;;22.85;;
29504;SDS011;16452;54.174;12.092;2023-03-01T07:38:34;38.85;;;22.67;;
29504;SDS011;16452;54.174;12.092;2023-03-01T07:41:00;41.38;;;23.83;;
29504;SDS011;16452;54.174;12.092;2023-03-01T07:43:28;44.83;;;24.60;;
29504;SDS011;16452;54.174;12.092;2023-03-01T07:45:57;45.15;;;24.63;;
29504;SDS011;16452;54.174;12.092;2023-03-01T07:48:27;47.03;;;26.30;;
29504;SDS011;16452;54.174;12.092;2023-03-01T07:50:54;52.10;;;26.88;;
29504;SDS011;16452;54.174;12.092;2023-03-01T07:53:23;48.00;;;27.30;;
29504;SDS011;16452;54.174;12.092;2023-03-01T07:55:49;50.55;;;28.75;;
29504;SDS011;16452;54.174;12.092;2023-03-01T07:58:24;52.42;;;29.38;;
29504;SDS011;16452;54.174;12.092;2023-03-01T08:00:50;51.00;;;28.38;;
29504;SDS011;16452;54.174;12.092;2023-03-01T08:03:15;56.42;;;28.67;;
29504;SDS011;16452;54.174;12.092;2023-03-01T08:05:41;54.80;;;28.95;;
29504;SDS011;16452;54.174;12.092;2023-03-01T08:08:07;56.45;;;29.35;;
29504;SDS011;16452;54.174;12.092;2023-03-01T08:10:33;51.30;;;29.27;;
29504;SDS011;16452;54.174;12.092;2023-03-01T08:12:59;54.17;;;28.90;;
29504;SDS011;16452;54.174;12.092;2023-03-01T08:15:24;50.65;;;28.05;;
29504;SDS011;16452;54.174;12.092;2023-03-01T08:17:50;53.95;;;28.23;;
29504;SDS011;16452;54.174;12.092;2023-03-01T08:20:16;45.70;;;27.73;;
29504;SDS011;16452;54.174;12.092;2023-03-01T08:22:42;50.90;;;27.92;;
29504;SDS011;16452;54.174;12.092;2023-03-01T08:25:08;50.78;;;28.38;;
29504;SDS011;16452;54.174;12.092;2023-03-01T08:27:34;56.60;;;30.38;;
29504;SDS011;16452;54.174;12.092;2023-03-01T08:30:00;56.42;;;30.65;;
29504;SDS011;16452;54.174;12.092;2023-03-01T08:32:26;53.50;;;29.75;;
29504;SDS011;16452;54.174;12.092;2023-03-01T08:34:52;59.13;;;29.85;;
29504;SDS011;16452;54.174;12.092;2023-03-01T08:37:18;55.15;;;29.70;;
29504;SDS011;16452;54.174;12.092;2023-03-01T08:39:43;54.38;;;29.98;;
29504;SDS011;16452;54.174;12.092;2023-03-01T08:42:09;58.50;;;29.63;;
29504;SDS011;16452;54.174;12.092;2023-03-01T08:44:38;71.30;;;31.45;;
29504;SDS011;16452;54.174;12.092;2023-03-01T08:47:04;53.17;;;28.73;;
29504;SDS011;16452;54.174;12.092;2023-03-01T08:49:29;60.60;;;30.25;;
29504;SDS011;16452;54.174;12.092;2023-03-01T08:51:57;54.13;;;29.38;;
29504;SDS011;16452;54.174;12.092;2023-03-01T08:54:23;59.03;;;31.02;;
29504;SDS011;16452;54.174;12.092;2023-03-01T08:56:49;52.47;;;28.83;;
29504;SDS011;16452;54.174;12.092;2023-03-01T08:59:16;52.03;;;28.75;;
29504;SDS011;16452;54.174;12.092;2023-03-01T09:01:42;51.88;;;28.52;;
29504;SDS011;16452;54.174;12.092;2023-03-01T09:04:09;52.70;;;30.02;;
29504;SDS011;16452;54.174;12.092;2023-03-01T09:06:36;55.20;;;31.40;;
29504;SDS011;16452;54.174;12.092;2023-03-01T09:09:03;54.45;;;29.75;;
29504;SDS011;16452;54.174;12.092;2023-03-01T09:11:30;49.95;;;28.88;;
29504;SDS011;16452;54.174;12.092;2023-03-01T09:13:56;50.15;;;27.70;;
29504;SDS011;16452;54.174;12.092;2023-03-01T09:16:22;46.42;;;27.17;;
29504;SDS011;16452;54.174;12.092;2023-03-01T09:18:49;43.95;;;24.75;;
29504;SDS011;16452;54.174;12.092;2023-03-01T09:21:20;48.60;;;28.02;;
29504;SDS011;16452;54.174;12.092;2023-03-01T09:23:48;49.60;;;28.55;;
29504;SDS011;16452;54.174;12.092;2023-03-01T09:26:15;45.67;;;28.33;;
29504;SDS011;16452;54.174;12.092;2023-03-01T09:28:48;52.38;;;29.27;;
29504;SDS011;16452;54.174;12.092;2023-03-01T09:31:16;50.17;;;29.27;;
29504;SDS011;16452;54.174;12.092;2023-03-01T09:33:45;50.63;;;27.77;;
29504;SDS011;16452;54.174;12.092;2023-03-01T09:36:16;50.95;;;27.00;;
29504;SDS011;16452;54.174;12.092;2023-03-01T09:38:45;49.67;;;28.45;;
29504;SDS011;16452;54.174;12.092;2023-03-01T09:41:24;52.05;;;29.95;;
29504;SDS011;16452;54.174;12.092;2023-03-01T09:46:58;53.13;;;29.63;;
29504;SDS011;16452;54.174;12.092;2023-03-01T09:49:26;54.67;;;30.38;;
29504;SDS011;16452;54.174;12.092;2023-03-01T09:52:03;56.75;;;30.92;;
29504;SDS011;16452;54.174;12.092;2023-03-01T09:55:14;61.55;;;30.77;;
29504;SDS011;16452;54.174;12.092;2023-03-01T10:04:05;54.35;;;30.63;;
29504;SDS011;16452;54.174;12.092;2023-03-01T10:06:58;56.45;;;30.33;;
29504;SDS011;16452;54.174;12.092;2023-03-01T10:09:43;59.78;;;30.45;;
29504;SDS011;16452;54.174;12.092;2023-03-01T10:12:12;59.15;;;32.22;;
29504;SDS011;16452;54.174;12.092;2023-03-01T10:15:18;55.38;;;30.88;;
29504;SDS011;16452;54.174;12.092;2023-03-01T10:20:26;59.45;;;32.67;;
29504;SDS011;16452;54.174;12.092;2023-03-01T10:23:16;62.28;;;32.53;;
29504;SDS011;16452;54.174;12.092;2023-03-01T10:31:03;56.67;;;31.08;;
29504;SDS011;16452;54.174;12.092;2023-03-01T10:33:30;57.33;;;29.55;;
29504;SDS011;16452;54.174;12.092;2023-03-01T10:36:00;55.35;;;31.60;;
29504;SDS011;16452;54.174;12.092;2023-03-01T10:38:27;55.33;;;31.00;;
29504;SDS011;16452;54.174;12.092;2023-03-01T10:41:11;58.20;;;31.55;;
29504;SDS011;16452;54.174;12.092;2023-03-01T10:51:48;51.08;;;30.23;;
29504;SDS011;16452;54.174;12.092;2023-03-01T10:56:50;55.60;;;30.95;;
29504;SDS011;16452;54.174;12.092;2023-03-01T10:59:31;53.08;;;28.40;;
29504;SDS011;16452;54.174;12.092;2023-03-01T11:04:34;52.13;;;29.05;;
29504;SDS011;16452;54.174;12.092;2023-03-01T11:07:01;54.63;;;29.42;;
29504;SDS011;16452;54.174;12.092;2023-03-01T11:09:31;55.22;;;30.40;;
29504;SDS011;16452;54.174;12.092;2023-03-01T11:12:03;53.08;;;30.20;;
29504;SDS011;16452;54.174;12.092;2023-03-01T11:14:39;53.85;;;28.65;;
29504;SDS011;16452;54.174;12.092;2023-03-01T11:17:30;58.72;;;30.92;;
29504;SDS011;16452;54.174;12.092;2023-03-01T11:22:31;51.78;;;28.88;;
29504;SDS011;16452;54.174;12.092;2023-03-01T11:25:00;51.17;;;27.52;;
29504;SDS011;16452;54.174;12.092;2023-03-01T11:27:35;54.15;;;30.00;;
29504;SDS011;16452;54.174;12.092;2023-03-01T11:30:09;61.38;;;31.50;;
29504;SDS011;16452;54.174;12.092;2023-03-01T11:32:49;54.55;;;31.23;;
29504;SDS011;16452;54.174;12.092;2023-03-01T11:35:26;52.58;;;29.52;;
29504;SDS011;16452;54.174;12.092;2023-03-01T11:43:36;53.03;;;28.13;;
29504;SDS011;16452;54.174;12.092;2023-03-01T11:54:47;47.00;;;25.50;;
29504;SDS011;16452;54.174;12.092;2023-03-01T12:15:51;40.00;;;22.90;;
29504;SDS011;16452;54.174;12.092;2023-03-01T12:26:19;39.42;;;22.52;;
29504;SDS011;16452;54.174;12.092;2023-03-01T12:32:05;46.13;;;25.27;;
29504;SDS011;16452;54.174;12.092;2023-03-01T12:40:33;39.85;;;22.65;;
29504;SDS011;16452;54.174;12.092;2023-03-01T12:49:21;47.20;;;23.48;;
29504;SDS011;16452;54.174;12.092;2023-03-01T12:52:00;40.15;;;24.38;;
29504;SDS011;16452;54.174;12.092;2023-03-01T12:54:36;49.65;;;24.38;;
29504;SDS011;16452;54.174;12.092;2023-03-01T12:57:20;61.10;;;24.50;;
29504;SDS011;16452;54.174;12.092;2023-03-01T13:00:18;45.80;;;25.20;;
29504;SDS011;16452;54.174;12.092;2023-03-01T13:11:22;43.53;;;23.58;;
29504;SDS011;16452;54.174;12.092;2023-03-01T13:13:48;39.10;;;22.08;;
29504;SDS011;16452;54.174;12.092;2023-03-01T13:19:20;44.90;;;23.35;;
29504;SDS011;16452;54.174;12.092;2023-03-01T13:21:49;53.17;;;22.52;;
29504;SDS011;16452;54.174;12.092;2023-03-01T13:24:26;121.65;;;24.23;;
29504;SDS011;16452;54.174;12.092;2023-03-01T13:32:19;48.20;;;25.73;;
29504;SDS011;16452;54.174;12.092;2023-03-01T13:34:53;54.63;;;26.83;;
29504;SDS011;16452;54.174;12.092;2023-03-01T13:37:23;63.05;;;27.88;;
29504;SDS011;16452;54.174;12.092;2023-03-01T13:39:55;70.22;;;28.40;;
29504;SDS011;16452;54.174;12.092;2023-03-01T13:42:34;56.72;;;27.70;;
29504;SDS011;16452;54.174;12.092;2023-03-01T13:48:09;60.67;;;26.70;;
29504;SDS011;16452;54.174;12.092;2023-03-01T13:50:48;49.17;;;25.02;;
29504;SDS011;16452;54.174;12.092;2023-03-01T13:53:21;46.88;;;23.50;;
29504;SDS011;16452;54.174;12.092;2023-03-01T13:59:20;84.75;;;20.80;;
29504;SDS011;16452;54.174;12.092;2023-03-01T14:01:51;49.67;;;20.67;;
29504;SDS011;16452;54.174;12.092;2023-03-01T14:06:48;35.50;;;20.17;;
29504;SDS011;16452;54.174;12.092;2023-03-01T14:09:22;52.00;;;19.13;;
29504;SDS011;16452;54.174;12.092;2023-03-01T14:15:22;52.22;;;18.10;;
29504;SDS011;16452;54.174;12.092;2023-03-01T14:20:44;70.68;;;34.97;;
29504;SDS011;16452;54.174;12.092;2023-03-01T14:23:17;54.97;;;19.15;;
29504;SDS011;16452;54.174;12.092;2023-03-01T14:25:47;45.67;;;19.42;;
29504;SDS011;16452;54.174;12.092;2023-03-01T14:28:23;41.75;;;21.27;;
29504;SDS011;16452;54.174;12.092;2023-03-01T14:30:55;33.22;;;18.30;;
29504;SDS011;16452;54.174;12.092;2023-03-01T14:33:27;40.33;;;16.88;;
29504;SDS011;16452;54.174;12.092;2023-03-01T14:43:42;42.65;;;18.88;;
29504;SDS011;16452;54.174;12.092;2023-03-01T14:46:19;30.63;;;18.08;;
29504;SDS011;16452;54.174;12.092;2023-03-01T14:49:00;33.15;;;18.80;;
29504;SDS011;16452;54.174;12.092;2023-03-01T14:51:36;39.20;;;17.88;;
29504;SDS011;16452;54.174;12.092;2023-03-01T14:54:10;49.15;;;18.58;;
29504;SDS011;16452;54.174;12.092;2023-03-01T14:56:51;40.17;;;19.23;;
29504;SDS011;16452;54.174;12.092;2023-03-01T14:59:23;40.10;;;18.73;;
29504;SDS011;16452;54.174;12.092;2023-03-01T15:01:49;48.17;;;18.08;;
29504;SDS011;16452;54.174;12.092;2023-03-01T15:04:18;39.70;;;19.13;;
29504;SDS011;16452;54.174;12.092;2023-03-01T15:06:44;63.50;;;20.45;;
29504;SDS011;16452;54.174;12.092;2023-03-01T15:09:14;46.95;;;17.77;;
29504;SDS011;16452;54.174;12.092;2023-03-01T15:11:42;63.60;;;16.85;;
29504;SDS011;16452;54.174;12.092;2023-03-01T15:17:19;40.72;;;16.67;;
29504;SDS011;16452;54.174;12.092;2023-03-01T15:19:59;41.65;;;17.08;;
29504;SDS011;16452;54.174;12.092;2023-03-01T15:22:29;55.45;;;18.42;;
29504;SDS011;16452;54.174;12.092;2023-03-01T15:24:55;79.18;;;18.17;;
29504;SDS011;16452;54.174;12.092;2023-03-01T15:27:21;35.63;;;17.23;;
29504;SDS011;16452;54.174;12.092;2023-03-01T15:29:53;45.78;;;16.63;;
29504;SDS011;16452;54.174;12.092;2023-03-01T15:32:34;61.10;;;16.33;;
29504;SDS011;16452;54.174;12.092;2023-03-01T15:41:29;84.43;;;17.08;;
29504;SDS011;16452;54.174;12.092;2023-03-01T15:44:24;42.35;;;17.63;;
29504;SDS011;16452;54.174;12.092;2023-03-01T15:46:53;77.00;;;17.60;;
29504;SDS011;16452;54.174;12.092;2023-03-01T15:51:53;34.25;;;16.60;;
29504;SDS011;16452;54.174;12.092;2023-03-01T15:54:21;77.88;;;16.10;;
29504;SDS011;16452;54.174;12.092;2023-03-01T15:56:49;49.83;;;16.40;;
29504;SDS011;16452;54.174;12.092;2023-03-01T15:59:15;45.72;;;16.30;;
29504;SDS011;16452;54.174;12.092;2023-03-01T16:01:42;74.35;;;16.38;;
29504;SDS011;16452;54.174;12.092;2023-03-01T16:04:09;81.50;;;16.08;;
29504;SDS011;16452;54.174;12.092;2023-03-01T16:06:51;50.95;;;16.08;;
29504;SDS011;16452;54.174;12.092;2023-03-01T16:09:21;65.57;;;15.80;;
29504;SDS011;16452;54.174;12.092;2023-03-01T16:11:49;50.13;;;14.93;;
29504;SDS011;16452;54.174;12.092;2023-03-01T16:14:16;37.67;;;14.30;;
29504;SDS011;16452;54.174;12.092;2023-03-01T16:16:42;46.78;;;16.25;;
29504;SDS011;16452;54.174;12.092;2023-03-01T16:19:08;54.92;;;15.07;;
29504;SDS011;16452;54.174;12.092;2023-03-01T16:21:35;50.00;;;15.45;;
29504;SDS011;16452;54.174;12.092;2023-03-01T16:24:01;34.92;;;14.65;;
29504;SDS011;16452;54.174;12.092;2023-03-01T16:26:27;49.33;;;14.63;;
29504;SDS011;16452;54.174;12.092;2023-03-01T16:28:56;48.95;;;14.40;;
29504;SDS011;16452;54.174;12.092;2023-03-01T16:31:22;44.78;;;14.65;;
29504;SDS011;16452;54.174;12.092;2023-03-01T16:33:52;44.22;;;19.00;;
29504;SDS011;16452;54.174;12.092;2023-03-01T16:36:23;51.15;;;14.70;;
29504;SDS011;16452;54.174;12.092;2023-03-01T16:38:52;51.38;;;15.70;;
29504;SDS011;16452;54.174;12.092;2023-03-01T16:41:20;61.08;;;14.88;;
29504;SDS011;16452;54.174;12.092;2023-03-01T16:43:47;46.42;;;13.52;;
29504;SDS011;16452;54.174;12.092;2023-03-01T16:46:15;43.22;;;14.13;;
29504;SDS011;16452;54.174;12.092;2023-03-01T16:48:50;53.13;;;14.45;;
29504;SDS011;16452;54.174;12.092;2023-03-01T16:51:16;70.07;;;14.73;;
29504;SDS011;16452;54.174;12.092;2023-03-01T16:53:46;50.45;;;14.43;;
29504;SDS011;16452;54.174;12.092;2023-03-01T16:56:12;40.03;;;15.52;;
29504;SDS011;16452;54.174;12.092;2023-03-01T16:58:39;43.22;;;15.80;;
29504;SDS011;16452;54.174;12.092;2023-03-01T17:01:15;60.70;;;14.82;;
29504;SDS011;16452;54.174;12.092;2023-03-01T17:03:45;103.03;;;14.15;;
29504;SDS011;16452;54.174;12.092;2023-03-01T17:06:13;32.30;;;14.55;;